Time;durP1;ratioP1;P1;durP2;ratioP2;P2;SDS_P1;SDS_P2;PMS_P1;PMS_P2;Temp;Humidity;BMP_temperature;BMP_pressure;BME280_temperature;BME280_humidity;BME280_pressure;Samples;Min_cycle;Max_cycle;Signal;HPM_P1;HPM_P2
2022/08/24 00:01:06;;;;;;;21.80;18.80;;;20.20;99.90;;;;;;4956592;28;20065;-76
2022/08/24 00:03:33;;;;;;;21.50;17.98;;;20.10;99.90;;;;;;4967585;28;20050;-76
2022/08/24 00:05:58;;;;;;;23.88;19.35;;;20.10;99.90;;;;;;4961757;28;20053;-76
2022/08/24 00:08:25;;;;;;;21.73;19.33;;;20.00;99.90;;;;;;4960614;28;20550;-76
2022/08/24 00:10:51;;;;;;;20.55;18.20;;;20.00;99.90;;;;;;4957608;28;20111;-76
2022/08/24 00:13:17;;;;;;;21.38;18.38;;;20.00;99.90;;;;;;4963927;28;20056;-76
2022/08/24 00:15:43;;;;;;;17.98;16.08;;;19.90;99.90;;;;;;4965355;28;20045;-76
2022/08/24 00:18:09;;;;;;;13.60;12.25;;;19.80;99.90;;;;;;4964236;28;20063;-76
2022/08/24 00:20:36;;;;;;;17.75;15.93;;;19.80;99.90;;;;;;4977872;28;20125;-76
2022/08/24 00:23:02;;;;;;;20.35;17.70;;;19.80;99.90;;;;;;4962395;28;20039;-76
2022/08/24 00:25:28;;;;;;;20.25;18.13;;;19.70;99.90;;;;;;4959623;28;20034;-76
2022/08/24 00:27:54;;;;;;;21.92;19.15;;;19.70;99.90;;;;;;4968475;28;20494;-76
2022/08/24 00:30:20;;;;;;;21.25;19.00;;;19.70;99.90;;;;;;4960453;28;20038;-76
2022/08/24 00:32:46;;;;;;;19.25;17.17;;;19.60;99.90;;;;;;4981963;28;20071;-77
2022/08/24 00:35:19;;;;;;;18.63;16.73;;;19.60;99.90;;;;;;4963067;28;20043;-77
2022/08/24 00:37:47;;;;;;;18.92;16.92;;;19.60;99.90;;;;;;4964688;28;20039;-77
2022/08/24 00:40:21;;;;;;;19.52;17.23;;;19.50;99.90;;;;;;4959526;28;20047;-77
2022/08/24 00:42:49;;;;;;;20.67;17.75;;;19.50;99.90;;;;;;4962335;28;20125;-77
2022/08/24 00:45:18;;;;;;;21.40;18.98;;;19.50;99.90;;;;;;4959645;28;20058;-77
2022/08/24 00:47:59;;;;;;;22.50;19.65;;;19.50;99.90;;;;;;4960096;28;20062;-77
2022/08/24 00:50:40;;;;;;;22.17;19.23;;;19.50;99.90;;;;;;4960284;28;20054;-77
2022/08/24 00:53:12;;;;;;;22.60;18.45;;;19.40;99.90;;;;;;4958769;28;20049;-77
2022/08/24 00:55:48;;;;;;;23.80;19.17;;;19.40;99.90;;;;;;4967018;28;20046;-77
2022/08/24 00:58:19;;;;;;;21.23;19.00;;;19.40;99.90;;;;;;4952373;28;20039;-77
2022/08/24 01:00:49;;;;;;;22.93;19.97;;;19.40;99.90;;;;;;4949027;28;20047;-77
2022/08/24 01:03:15;;;;;;;28.55;21.58;;;19.40;99.90;;;;;;4959526;28;20118;-78
2022/08/24 01:05:43;;;;;;;29.13;20.48;;;19.30;99.90;;;;;;4968977;28;20043;-77
2022/08/24 01:08:10;;;;;;;20.05;17.83;;;19.30;99.90;;;;;;5019647;23;20057;-78
2022/08/24 01:10:44;;;;;;;22.83;17.38;;;19.30;99.90;;;;;;4999358;28;20042;-78
2022/08/24 01:13:12;;;;;;;17.80;15.90;;;19.30;99.90;;;;;;4993987;28;20042;-78
2022/08/24 01:15:43;;;;;;;17.02;15.32;;;19.20;99.90;;;;;;4987798;28;20031;-78
2022/08/24 01:21:23;;;;;;;19.15;17.15;;;19.20;99.90;;;;;;5000607;28;20048;-80
2022/08/24 01:24:11;;;;;;;18.35;16.38;;;19.10;99.90;;;;;;5004712;28;20489;-80
2022/08/24 01:26:47;;;;;;;18.73;15.88;;;19.10;99.90;;;;;;4985088;28;20505;-80
2022/08/24 01:29:21;;;;;;;17.55;15.75;;;19.10;99.90;;;;;;4965858;28;20089;-80
2022/08/24 01:31:47;;;;;;;19.83;15.30;;;19.10;99.90;;;;;;4957767;28;20031;-80
2022/08/24 01:34:12;;;;;;;17.25;15.50;;;19.10;99.90;;;;;;4983210;28;20088;-79
2022/08/24 01:36:44;;;;;;;19.55;17.30;;;19.00;99.90;;;;;;5024302;28;20030;-79
2022/08/24 01:39:20;;;;;;;;;;;19.00;99.90;;;;;;4983509;28;20038;-79
2022/08/24 01:41:45;;;;;;;14.25;12.75;;;19.00;99.90;;;;;;4982183;28;19972;-79
2022/08/24 01:44:12;;;;;;;15.38;13.70;;;18.90;99.90;;;;;;4991458;28;20070;-79
2022/08/24 01:46:43;;;;;;;14.63;11.55;;;18.90;99.90;;;;;;4988105;28;20046;-79
2022/08/24 01:49:09;;;;;;;16.00;14.30;;;18.90;99.90;;;;;;5013867;28;20098;-80
2022/08/24 01:51:35;;;;;;;17.23;15.43;;;18.80;99.90;;;;;;4973766;28;20042;-80
2022/08/24 01:54:01;;;;;;;17.40;15.35;;;18.80;99.90;;;;;;5034532;28;20121;-79
2022/08/24 01:56:29;;;;;;;17.08;15.48;;;18.80;99.90;;;;;;4965262;28;20403;-79
2022/08/24 01:58:55;;;;;;;18.48;16.48;;;18.80;99.90;;;;;;4968517;28;20038;-80
2022/08/24 02:01:22;;;;;;;19.38;17.45;;;18.80;99.90;;;;;;4983280;28;20088;-79
2022/08/24 02:03:47;;;;;;;21.35;17.83;;;18.80;99.90;;;;;;4989400;28;20410;-80
2022/08/24 02:06:13;;;;;;;21.00;17.70;;;18.80;99.90;;;;;;4991984;28;20030;-79
2022/08/24 02:08:39;;;;;;;20.38;18.27;;;18.80;99.90;;;;;;4979831;28;20050;-79
2022/08/24 02:11:08;;;;;;;21.75;19.48;;;18.80;99.90;;;;;;4981064;28;20038;-79
2022/08/24 02:13:36;;;;;;;23.60;20.45;;;18.80;99.90;;;;;;4992732;28;20061;-79
2022/08/24 02:16:02;;;;;;;23.52;19.80;;;18.70;99.90;;;;;;4976963;28;20058;-79
2022/08/24 02:18:28;;;;;;;16.05;14.35;;;18.70;99.90;;;;;;5007745;28;20036;-79
2022/08/24 02:20:54;;;;;;;15.45;13.57;;;18.70;99.90;;;;;;4965710;28;20039;-79
2022/08/24 02:23:20;;;;;;;13.98;12.55;;;18.70;99.90;;;;;;4988036;28;20039;-79
2022/08/24 02:25:46;;;;;;;14.82;13.32;;;18.70;99.90;;;;;;4985526;28;20047;-80
2022/08/24 02:28:12;;;;;;;16.98;15.18;;;18.60;99.90;;;;;;5027774;28;20044;-79
2022/08/24 02:30:39;;;;;;;17.83;15.23;;;18.60;99.90;;;;;;4993053;28;20050;-80
2022/08/24 02:33:06;;;;;;;17.75;15.95;;;18.60;99.90;;;;;;4990455;28;20035;-80
2022/08/24 02:35:32;;;;;;;18.42;16.30;;;18.60;99.90;;;;;;5018332;28;20040;-79
2022/08/24 02:37:58;;;;;;;18.38;16.55;;;18.50;99.90;;;;;;4984819;28;21391;-79
2022/08/24 02:40:24;;;;;;;17.42;15.63;;;18.50;99.90;;;;;;5036578;28;20036;-79
2022/08/24 02:42:50;;;;;;;18.25;16.35;;;18.50;99.90;;;;;;4985235;28;20103;-79
2022/08/24 02:45:16;;;;;;;17.27;15.43;;;18.50;99.90;;;;;;4984748;28;20398;-79
2022/08/24 02:47:42;;;;;;;17.75;15.95;;;18.50;99.90;;;;;;4969335;28;20046;-80
2022/08/24 02:50:13;;;;;;;15.50;13.90;;;18.40;99.90;;;;;;4992747;28;20508;-79
2022/08/24 02:52:40;;;;;;;12.48;11.18;;;18.40;99.90;;;;;;4993011;28;20038;-79
2022/08/24 02:55:10;;;;;;;9.60;8.70;;;18.40;99.90;;;;;;4990004;28;20119;-79
2022/08/24 02:57:36;;;;;;;8.52;7.72;;;18.40;99.90;;;;;;4978263;28;20038;-79
2022/08/24 03:00:07;;;;;;;8.48;7.50;;;18.30;99.90;;;;;;4984019;28;20042;-79
2022/08/24 03:02:32;;;;;;;10.07;9.07;;;18.30;99.90;;;;;;4972066;28;20042;-79
2022/08/24 03:04:58;;;;;;;10.38;9.38;;;18.20;99.90;;;;;;4977973;28;20039;-79
2022/08/24 03:07:23;;;;;;;11.65;10.45;;;18.20;99.90;;;;;;4978226;28;20112;-79
2022/08/24 03:09:49;;;;;;;13.20;11.25;;;18.20;99.90;;;;;;5009595;28;20122;-79
2022/08/24 03:12:14;;;;;;;14.93;13.43;;;18.20;99.90;;;;;;4978257;28;20482;-79
2022/08/24 03:14:40;;;;;;;16.75;14.95;;;18.20;99.90;;;;;;4997106;28;20095;-79
2022/08/24 03:17:06;;;;;;;17.23;15.25;;;18.20;99.90;;;;;;5003673;28;20546;-79
2022/08/24 03:19:32;;;;;;;15.27;13.70;;;18.20;99.90;;;;;;5008827;28;20054;-79
2022/08/24 03:21:58;;;;;;;14.02;12.63;;;18.10;99.90;;;;;;4979540;28;20505;-79
2022/08/24 03:24:24;;;;;;;16.48;14.38;;;18.10;99.90;;;;;;5005945;28;20035;-79
2022/08/24 03:26:50;;;;;;;15.20;13.70;;;18.10;99.90;;;;;;5010507;28;20030;-79
2022/08/24 03:29:15;;;;;;;16.38;14.32;;;18.10;99.90;;;;;;4988732;28;20501;-79
2022/08/24 03:31:41;;;;;;;16.95;15.13;;;18.10;99.90;;;;;;4983684;28;20049;-79
2022/08/24 03:34:07;;;;;;;17.13;15.32;;;18.10;99.90;;;;;;4981504;28;20041;-79
2022/08/24 03:36:33;;;;;;;18.70;16.70;;;18.10;99.90;;;;;;4968769;28;20496;-79
2022/08/24 03:38:58;;;;;;;18.13;16.23;;;18.10;99.90;;;;;;4983006;28;20035;-79
2022/08/24 03:41:26;;;;;;;16.67;14.98;;;18.00;99.90;;;;;;4975358;28;20041;-80
2022/08/24 03:43:54;;;;;;;19.02;16.02;;;18.00;99.90;;;;;;4977806;28;20047;-80
2022/08/24 03:46:27;;;;;;;18.00;15.75;;;18.00;99.90;;;;;;4958920;28;20135;-80
2022/08/24 03:48:54;;;;;;;17.98;16.10;;;18.00;99.90;;;;;;4972806;28;20039;-79
2022/08/24 03:51:24;;;;;;;17.17;15.38;;;18.00;99.90;;;;;;4980618;28;20042;-79
2022/08/24 03:53:51;;;;;;;17.40;15.50;;;18.00;99.90;;;;;;4972668;28;20034;-79
2022/08/24 03:56:17;;;;;;;17.52;14.38;;;17.90;99.90;;;;;;4971039;28;20603;-79
2022/08/24 03:58:43;;;;;;;16.88;14.85;;;18.00;99.90;;;;;;4980462;28;20121;-79
2022/08/24 04:01:10;;;;;;;18.45;15.95;;;17.90;99.90;;;;;;4961061;28;20042;-79
2022/08/24 04:03:37;;;;;;;17.13;15.23;;;18.00;99.90;;;;;;4979744;28;20045;-79
2022/08/24 04:06:04;;;;;;;17.45;15.55;;;17.90;99.90;;;;;;4979745;28;20034;-79
2022/08/24 04:08:31;;;;;;;19.92;16.70;;;17.90;99.90;;;;;;5000786;28;20096;-79
2022/08/24 04:10:57;;;;;;;19.35;17.25;;;17.90;99.90;;;;;;5022356;28;20130;-79
2022/08/24 04:13:23;;;;;;;17.50;15.50;;;17.90;99.90;;;;;;4996746;28;20038;-79
2022/08/24 04:15:51;;;;;;;16.98;15.10;;;17.90;99.90;;;;;;4979390;28;20117;-79
2022/08/24 04:18:18;;;;;;;16.40;14.70;;;17.90;99.90;;;;;;5016483;28;20136;-79
2022/08/24 04:20:44;;;;;;;17.15;15.35;;;17.80;99.90;;;;;;4990568;28;20095;-79
2022/08/24 04:23:11;;;;;;;17.13;15.27;;;17.80;99.90;;;;;;4980942;28;20046;-79
2022/08/24 04:25:41;;;;;;;16.02;14.45;;;17.70;99.90;;;;;;4981104;28;20039;-79
2022/08/24 04:28:07;;;;;;;17.08;15.38;;;17.80;99.90;;;;;;4978813;28;20087;-79
2022/08/24 04:30:33;;;;;;;18.45;16.55;;;17.70;99.90;;;;;;5000051;28;20042;-79
2022/08/24 04:32:58;;;;;;;19.52;17.50;;;17.70;99.90;;;;;;5002907;28;20051;-79
2022/08/24 04:35:24;;;;;;;19.08;17.10;;;17.70;99.90;;;;;;5006925;28;20064;-79
2022/08/24 04:37:50;;;;;;;18.42;16.17;;;17.70;99.90;;;;;;5007659;28;20053;-79
2022/08/24 04:40:15;;;;;;;16.75;14.95;;;17.60;99.90;;;;;;4985974;28;20383;-78
2022/08/24 04:42:41;;;;;;;16.98;14.10;;;17.60;99.90;;;;;;5028753;28;20036;-78
2022/08/24 04:45:08;;;;;;;15.48;13.85;;;17.60;99.90;;;;;;4996428;28;20494;-79
2022/08/24 04:47:33;;;;;;;16.60;13.77;;;17.50;99.90;;;;;;4997267;28;20129;-79
2022/08/24 04:49:59;;;;;;;17.83;15.18;;;17.50;99.90;;;;;;4963568;28;20031;-78
2022/08/24 04:52:27;;;;;;;15.98;14.38;;;17.60;99.90;;;;;;4979642;28;20473;-80
2022/08/24 04:54:53;;;;;;;18.70;16.05;;;17.60;99.90;;;;;;4981343;28;20038;-80
2022/08/24 04:57:19;;;;;;;19.15;17.15;;;17.60;99.90;;;;;;4982495;28;20050;-80
2022/08/24 04:59:45;;;;;;;20.08;17.70;;;17.60;99.90;;;;;;4971167;28;20126;-80
2022/08/24 05:02:12;;;;;;;21.05;18.85;;;17.60;99.90;;;;;;4989455;28;20035;-79
2022/08/24 05:04:37;;;;;;;22.60;20.20;;;17.60;99.90;;;;;;4983270;28;20074;-81
2022/08/24 05:07:04;;;;;;;22.10;19.70;;;17.60;99.90;;;;;;4976272;28;20069;-78
2022/08/24 05:09:30;;;;;;;23.17;20.67;;;17.60;99.90;;;;;;4979104;28;20050;-78
2022/08/24 05:11:56;;;;;;;22.92;20.42;;;17.60;99.90;;;;;;4969981;28;20058;-79
2022/08/24 05:14:22;;;;;;;22.13;19.83;;;17.80;99.90;;;;;;4978316;28;20039;-79
2022/08/24 05:16:47;;;;;;;20.08;18.02;;;17.70;99.90;;;;;;4985373;28;20056;-80
2022/08/24 05:19:13;;;;;;;16.85;15.15;;;17.70;99.90;;;;;;4989212;28;20042;-79
2022/08/24 05:21:39;;;;;;;14.43;11.95;;;17.70;99.90;;;;;;4990493;28;20053;-79
2022/08/24 05:24:04;;;;;;;12.27;11.10;;;17.60;99.90;;;;;;5066655;28;20039;-79
2022/08/24 05:26:30;;;;;;;12.35;11.15;;;17.60;99.90;;;;;;5003335;28;20034;-80
2022/08/24 05:29:01;;;;;;;12.65;11.45;;;17.60;99.90;;;;;;4996964;28;20188;-80
2022/08/24 05:31:29;;;;;;;14.82;13.23;;;17.60;99.90;;;;;;4984843;28;20148;-80
2022/08/24 05:33:56;;;;;;;15.65;13.77;;;17.60;99.90;;;;;;5021016;28;20134;-78
2022/08/24 05:36:27;;;;;;;15.80;14.18;;;17.70;99.90;;;;;;4974415;28;20066;-79
2022/08/24 05:38:56;;;;;;;18.13;16.23;;;17.60;99.90;;;;;;4982771;28;20102;-80
2022/08/24 05:41:22;;;;;;;20.75;18.65;;;17.70;99.90;;;;;;4998009;28;20065;-80
2022/08/24 05:43:48;;;;;;;22.27;19.98;;;17.70;99.90;;;;;;5008096;28;20047;-80
2022/08/24 05:46:14;;;;;;;24.52;21.17;;;17.70;99.90;;;;;;4986689;28;20072;-79
2022/08/24 05:48:40;;;;;;;23.65;21.10;;;17.70;99.90;;;;;;4990815;28;20069;-80
2022/08/24 05:51:07;;;;;;;23.35;20.90;;;17.70;99.90;;;;;;4983839;28;20538;-80
2022/08/24 05:53:34;;;;;;;24.80;21.38;;;17.60;99.90;;;;;;4997588;28;20038;-80
2022/08/24 05:56:05;;;;;;;24.67;21.77;;;17.70;99.90;;;;;;5016176;28;20034;-80
2022/08/24 05:58:31;;;;;;;30.97;27.77;;;17.80;99.90;;;;;;4989095;28;20047;-80
2022/08/24 06:00:58;;;;;;;34.13;30.27;;;17.80;99.90;;;;;;4979644;28;20027;-79
2022/08/24 06:03:25;;;;;;;33.65;29.98;;;17.80;99.90;;;;;;4987782;28;20390;-79
2022/08/24 06:05:51;;;;;;;37.25;29.80;;;18.00;99.90;;;;;;4979135;28;20043;-80
2022/08/24 06:08:17;;;;;;;32.88;29.15;;;17.90;99.90;;;;;;4983415;28;20046;-80
2022/08/24 06:10:48;;;;;;;32.58;28.58;;;18.00;99.90;;;;;;4983060;28;20509;-80
2022/08/24 06:13:15;;;;;;;32.63;27.73;;;18.00;99.90;;;;;;4982863;28;20127;-80
2022/08/24 06:15:42;;;;;;;33.55;28.45;;;18.10;99.90;;;;;;4988772;28;20295;-80
2022/08/24 06:18:08;;;;;;;33.10;29.38;;;18.10;99.90;;;;;;5008772;28;20049;-80
2022/08/24 06:20:39;;;;;;;34.72;30.75;;;18.10;99.90;;;;;;4985859;28;20050;-80
2022/08/24 06:23:05;;;;;;;38.95;33.17;;;18.20;99.90;;;;;;5020177;28;20043;-80
2022/08/24 06:28:15;;;;;;;40.97;34.75;;;18.30;99.90;;;;;;4992618;28;20431;-80
2022/08/24 06:30:41;;;;;;;40.50;35.35;;;18.40;99.90;;;;;;4983570;28;20050;-80
2022/08/24 06:33:08;;;;;;;49.08;36.85;;;18.40;99.90;;;;;;4982277;28;20049;-81
2022/08/24 06:35:34;;;;;;;40.63;35.30;;;18.40;99.90;;;;;;4997742;28;20080;-80
2022/08/24 06:38:00;;;;;;;39.47;35.22;;;18.50;99.90;;;;;;4978782;28;20046;-81
2022/08/24 06:40:26;;;;;;;49.90;40.10;;;18.50;99.90;;;;;;5067556;28;20478;-80
2022/08/24 06:42:52;;;;;;;42.53;35.97;;;18.60;99.90;;;;;;4987859;28;20455;-80
2022/08/24 06:45:18;;;;;;;48.30;40.30;;;18.60;99.90;;;;;;4976726;28;20123;-81
2022/08/24 06:47:44;;;;;;;45.83;38.90;;;18.70;99.90;;;;;;4995949;28;20046;-83
2022/08/24 06:50:11;;;;;;;52.40;42.42;;;18.80;99.90;;;;;;5013772;28;20518;-80
2022/08/24 06:52:38;;;;;;;56.35;43.47;;;18.80;99.90;;;;;;4995648;28;20040;-81
2022/08/24 06:55:05;;;;;;;56.63;41.50;;;18.80;99.90;;;;;;4993430;28;20446;-81
2022/08/24 06:57:30;;;;;;;55.83;43.80;;;18.90;99.90;;;;;;4980893;28;20043;-80
2022/08/24 06:59:56;;;;;;;50.63;41.63;;;18.90;99.90;;;;;;4992990;28;20044;-81
2022/08/24 07:02:24;;;;;;;52.95;40.92;;;19.00;99.90;;;;;;4983372;28;20533;-83
2022/08/24 07:04:50;;;;;;;50.78;41.72;;;19.10;99.90;;;;;;5008587;28;20046;-81
2022/08/24 07:07:16;;;;;;;55.63;43.38;;;19.10;99.90;;;;;;5016720;23;20406;-76
2022/08/24 07:09:42;;;;;;;46.97;41.17;;;19.10;99.90;;;;;;4967914;28;20066;-76
2022/08/24 07:12:07;;;;;;;45.28;38.53;;;19.20;99.90;;;;;;4970222;28;20034;-76
2022/08/24 07:14:33;;;;;;;51.90;43.20;;;19.20;99.90;;;;;;4970389;28;20072;-76
2022/08/24 07:16:59;;;;;;;55.35;44.45;;;19.30;99.90;;;;;;4985933;28;20149;-76
2022/08/24 07:19:24;;;;;;;52.45;41.80;;;19.40;99.90;;;;;;5003906;28;20045;-76
2022/08/24 07:21:54;;;;;;;50.35;41.72;;;19.40;99.90;;;;;;4988172;28;20042;-76
2022/08/24 07:24:20;;;;;;;49.17;42.72;;;19.60;99.90;;;;;;5025362;28;20048;-76
2022/08/24 07:26:45;;;;;;;53.20;42.40;;;19.50;99.90;;;;;;4988178;28;20052;-76
2022/08/24 07:29:14;;;;;;;47.03;40.08;;;19.60;99.90;;;;;;5012037;28;20047;-76
2022/08/24 07:31:41;;;;;;;48.90;39.83;;;19.70;99.90;;;;;;4995558;28;20038;-76
2022/08/24 07:34:08;;;;;;;48.55;40.38;;;19.80;99.90;;;;;;4978204;28;20504;-76
2022/08/24 07:36:35;;;;;;;42.22;37.65;;;19.90;99.90;;;;;;5013343;28;20041;-76
2022/08/24 07:39:02;;;;;;;44.95;38.55;;;20.00;99.90;;;;;;4996218;28;20126;-76
2022/08/24 07:41:31;;;;;;;42.53;35.83;;;20.00;99.90;;;;;;4980280;28;20039;-76
2022/08/24 07:43:57;;;;;;;39.45;34.28;;;20.20;99.90;;;;;;5001199;28;20042;-76
2022/08/24 07:46:23;;;;;;;38.00;33.22;;;20.10;99.90;;;;;;5017866;28;20045;-76
2022/08/24 07:48:49;;;;;;;35.75;31.73;;;20.20;99.90;;;;;;5001934;28;20095;-76
2022/08/24 07:51:18;;;;;;;41.17;32.22;;;20.30;99.90;;;;;;4980764;28;20034;-76
2022/08/24 07:53:44;;;;;;;31.15;27.42;;;20.40;99.90;;;;;;5014281;28;20034;-76
2022/08/24 07:56:10;;;;;;;30.67;25.77;;;20.50;99.90;;;;;;4983202;28;20037;-76
2022/08/24 07:58:36;;;;;;;30.05;24.50;;;20.60;99.90;;;;;;5001877;28;20046;-76
2022/08/24 08:01:03;;;;;;;32.17;25.02;;;20.60;99.90;;;;;;4985575;28;20026;-76
2022/08/24 08:03:32;;;;;;;30.88;25.10;;;20.70;99.90;;;;;;4977632;28;20448;-76
2022/08/24 08:06:00;;;;;;;26.42;23.60;;;20.80;99.90;;;;;;4982815;28;20038;-76
2022/08/24 08:08:27;;;;;;;26.98;23.80;;;20.90;99.90;;;;;;4976913;28;20030;-76
2022/08/24 08:10:53;;;;;;;27.98;24.77;;;21.00;99.90;;;;;;4989469;28;20046;-76
2022/08/24 08:13:19;;;;;;;27.85;24.48;;;21.10;99.90;;;;;;5000659;28;20038;-76
2022/08/24 08:15:45;;;;;;;28.17;24.55;;;21.20;99.90;;;;;;5002435;28;20809;-76
2022/08/24 08:18:13;;;;;;;29.58;23.52;;;21.20;99.90;;;;;;4967312;28;20030;-76
2022/08/24 08:20:40;;;;;;;25.65;20.63;;;21.30;99.90;;;;;;5045327;28;20046;-76
2022/08/24 08:25:53;;;;;;;21.50;16.60;;;21.40;99.90;;;;;;4988512;28;20405;-76
2022/08/24 08:28:19;;;;;;;22.13;18.10;;;21.50;99.90;;;;;;5011256;28;20084;-76
2022/08/24 08:30:45;;;;;;;20.52;16.30;;;21.60;99.90;;;;;;5001553;28;20128;-76
2022/08/24 08:33:11;;;;;;;23.50;18.13;;;21.60;99.90;;;;;;4977795;28;20465;-76
2022/08/24 08:35:37;;;;;;;21.20;17.67;;;21.70;99.90;;;;;;4977303;28;20047;-76
2022/08/24 08:38:04;;;;;;;21.42;17.88;;;21.80;99.90;;;;;;4984085;28;20034;-76
2022/08/24 08:41:02;;;;;;;21.20;17.02;;;21.90;99.90;;;;;;4987990;28;20543;-76
2022/08/24 08:43:44;;;;;;;18.20;16.00;;;22.10;99.90;;;;;;4994269;28;20041;-77
2022/08/24 08:46:28;;;;;;;;;;;22.40;99.90;;;;;;5021094;28;20472;-77
2022/08/24 08:49:31;;;;;;;19.25;15.50;;;22.60;99.90;;;;;;4984816;28;19918;-76
2022/08/24 08:52:23;;;;;;;19.27;14.27;;;22.80;99.90;;;;;;5010926;28;20497;-76
2022/08/24 08:55:03;;;;;;;14.45;12.90;;;23.10;99.90;;;;;;4982287;28;20034;-77
2022/08/24 08:57:38;;;;;;;21.45;12.65;;;23.40;99.90;;;;;;4984768;28;20089;-77
2022/08/24 09:00:15;;;;;;;13.05;10.90;;;23.70;99.90;;;;;;4976554;28;20035;-77
2022/08/24 09:03:08;;;;;;;13.65;10.43;;;23.90;99.90;;;;;;4976255;28;20047;-77
2022/08/24 09:06:04;;;;;;;14.20;9.63;;;24.20;99.90;;;;;;4985449;28;20224;-77
2022/08/24 09:08:49;;;;;;;12.10;8.88;;;24.40;99.90;;;;;;4999345;28;20042;-77
2022/08/24 09:11:47;;;;;;;11.95;9.57;;;24.60;99.90;;;;;;4988741;28;20503;-77
2022/08/24 09:14:12;;;;;;;13.45;9.00;;;24.80;99.90;;;;;;4993985;28;20046;-77
2022/08/24 09:16:49;;;;;;;13.20;9.60;;;24.90;99.90;;;;;;4986908;28;20042;-77
2022/08/24 09:19:27;;;;;;;12.70;11.30;;;25.00;99.90;;;;;;4982400;28;20045;-77
2022/08/24 09:22:07;;;;;;;12.35;10.70;;;25.10;99.90;;;;;;4978594;28;20042;-77
2022/08/24 09:24:51;;;;;;;12.35;10.57;;;25.30;99.90;;;;;;4974972;28;20050;-77
2022/08/24 09:27:26;;;;;;;14.82;10.32;;;25.50;99.90;;;;;;4980513;28;20482;-77
2022/08/24 09:30:28;;;;;;;11.48;9.38;;;25.60;99.90;;;;;;4982895;28;20074;-77
2022/08/24 09:33:18;;;;;;;11.93;9.13;;;25.70;99.90;;;;;;4990580;28;20486;-77
2022/08/24 09:35:50;;;;;;;12.75;8.05;;;25.80;99.90;;;;;;4987854;28;20042;-77
2022/08/24 09:38:15;;;;;;;;;;;25.90;99.90;;;;;;4994599;28;20043;-77
2022/08/24 09:40:59;;;;;;;10.20;7.15;;;26.10;99.90;;;;;;4972549;28;19941;-77
2022/08/24 09:43:39;;;;;;;10.50;7.15;;;26.50;99.90;;;;;;4986840;28;20089;-77
2022/08/24 09:46:35;;;;;;;13.90;7.85;;;26.60;99.90;;;;;;4983106;28;20049;-77
2022/08/24 09:49:31;;;;;;;8.07;6.68;;;26.70;99.90;;;;;;4999780;28;20045;-77
2022/08/24 09:51:57;;;;;;;7.15;5.38;;;26.90;99.90;;;;;;4986679;28;20472;-77
2022/08/24 09:54:57;;;;;;;10.52;5.95;;;27.10;99.90;;;;;;4972228;28;20067;-77
2022/08/24 09:57:44;;;;;;;8.52;5.50;;;27.20;99.90;;;;;;4976960;28;20570;-78
2022/08/24 10:00:25;;;;;;;7.38;4.88;;;27.40;99.90;;;;;;4987541;28;20053;-78
2022/08/24 10:03:05;;;;;;;7.75;5.05;;;27.50;99.90;;;;;;4971128;28;20529;-78
2022/08/24 10:06:13;;;;;;;7.28;5.28;;;27.50;98.70;;;;;;5021855;28;20038;-78
2022/08/24 10:09:17;;;;;;;7.88;5.05;;;27.50;97.60;;;;;;4988635;28;20088;-78
2022/08/24 10:11:46;;;;;;;7.80;5.85;;;27.60;97.40;;;;;;4976799;28;20502;-78
2022/08/24 10:14:14;;;;;;;6.28;4.53;;;27.70;98.30;;;;;;5023427;28;20057;-78
2022/08/24 10:16:48;;;;;;;7.05;4.90;;;27.80;98.00;;;;;;4998778;28;20470;-78
2022/08/24 10:19:41;;;;;;;5.70;4.20;;;28.00;97.80;;;;;;4990290;28;20179;-78
2022/08/24 10:22:32;;;;;;;8.23;4.93;;;28.10;96.70;;;;;;4976915;28;20042;-78
2022/08/24 10:25:07;;;;;;;5.72;3.70;;;28.20;95.60;;;;;;4980454;28;20049;-78
2022/08/24 10:27:45;;;;;;;6.68;3.60;;;28.30;96.40;;;;;;4986301;28;20053;-78
2022/08/24 10:30:20;;;;;;;5.50;4.05;;;28.40;96.30;;;;;;4978635;28;20039;-78
2022/08/24 10:33:18;;;;;;;4.88;3.30;;;28.50;94.40;;;;;;4985809;28;20097;-78
2022/08/24 10:36:06;;;;;;;4.63;3.08;;;28.40;93.90;;;;;;4990024;28;20038;-78
2022/08/24 10:45:23;;;;;;;5.32;2.20;;;28.50;93.80;;;;;;4986785;28;20053;-78
2022/08/24 10:48:14;;;;;;;2.55;2.30;;;28.70;94.00;;;;;;4985975;28;20049;-78
2022/08/24 10:50:51;;;;;;;4.50;2.60;;;29.00;94.20;;;;;;4980199;28;20063;-78
2022/08/24 10:53:25;;;;;;;4.18;2.80;;;29.20;93.50;;;;;;5001188;28;20572;-78
2022/08/24 10:56:04;;;;;;;4.45;2.70;;;29.20;93.60;;;;;;4989906;28;20032;-78
2022/08/24 10:58:32;;;;;;;3.67;2.60;;;29.20;92.10;;;;;;4990592;28;20038;-78
2022/08/24 11:01:13;;;;;;;4.50;2.25;;;29.20;92.20;;;;;;4982493;28;20046;-78
2022/08/24 11:03:53;;;;;;;3.15;1.95;;;29.20;91.10;;;;;;4986903;28;20068;-78
2022/08/24 11:06:21;;;;;;;2.63;1.92;;;29.10;90.30;;;;;;4982173;28;20062;-78
2022/08/24 11:09:04;;;;;;;3.70;1.90;;;29.10;91.10;;;;;;4984746;28;20138;-78
2022/08/24 11:11:37;;;;;;;2.58;2.10;;;29.10;90.70;;;;;;4986353;28;20540;-78
2022/08/24 11:14:21;;;;;;;4.45;2.13;;;29.10;91.40;;;;;;5018609;28;20037;-78
2022/08/24 11:16:47;;;;;;;2.85;2.17;;;29.10;90.80;;;;;;5004351;28;20422;-78
2022/08/24 11:19:28;;;;;;;4.00;2.30;;;29.20;91.00;;;;;;4981324;28;20101;-77
2022/08/24 11:21:56;;;;;;;4.57;2.17;;;29.20;91.10;;;;;;4989359;28;20405;-78
2022/08/24 11:24:25;;;;;;;2.97;2.30;;;29.40;91.20;;;;;;4978654;28;20481;-78
2022/08/24 11:27:05;;;;;;;3.30;2.20;;;29.60;91.20;;;;;;4976225;28;20046;-78
2022/08/24 11:29:52;;;;;;;3.78;2.20;;;29.80;91.30;;;;;;4987812;28;20050;-78
2022/08/24 11:32:55;;;;;;;3.63;2.10;;;29.80;88.60;;;;;;4967875;28;20045;-78
2022/08/24 11:35:32;;;;;;;3.42;1.85;;;29.80;89.40;;;;;;4961448;28;20497;-78
2022/08/24 11:38:19;;;;;;;4.03;2.00;;;29.80;90.10;;;;;;4987413;28;20062;-78
2022/08/24 11:41:06;;;;;;;2.83;1.83;;;30.00;90.20;;;;;;4989882;28;20038;-78
2022/08/24 11:43:38;;;;;;;3.33;1.92;;;30.20;85.60;;;;;;4982774;28;20047;-78
2022/08/24 11:46:03;;;;;;;2.25;1.98;;;30.10;86.30;;;;;;5000309;28;20042;-78
2022/08/24 11:48:59;;;;;;;2.45;2.13;;;30.10;85.60;;;;;;4983216;28;20051;-78
2022/08/24 11:51:38;;;;;;;4.28;1.85;;;30.00;85.10;;;;;;4986662;28;20046;-78
2022/08/24 11:54:18;;;;;;;2.63;2.10;;;30.10;85.10;;;;;;4981054;28;20555;-78
2022/08/24 11:57:04;;;;;;;3.28;1.85;;;30.10;84.80;;;;;;4981030;28;20078;-78
2022/08/24 11:59:41;;;;;;;2.22;1.80;;;30.20;84.40;;;;;;4982697;28;20442;-78
2022/08/24 12:02:42;;;;;;;2.22;2.00;;;30.30;83.30;;;;;;5022774;28;20509;-78
2022/08/24 12:05:08;;;;;;;3.75;1.88;;;30.40;83.20;;;;;;4970325;28;20057;-78
2022/08/24 12:07:41;;;;;;;2.10;1.70;;;30.60;84.50;;;;;;4986876;28;20039;-78
2022/08/24 12:10:30;;;;;;;2.60;1.95;;;30.70;83.70;;;;;;4983330;28;20035;-78
2022/08/24 12:13:08;;;;;;;3.33;1.95;;;30.80;83.80;;;;;;4980361;28;20050;-78
2022/08/24 12:15:33;;;;;;;2.08;1.58;;;31.00;82.00;;;;;;5019399;28;20550;-78
2022/08/24 12:18:29;;;;;;;1.88;1.73;;;31.00;81.50;;;;;;4983577;28;20117;-78
2022/08/24 12:20:58;;;;;;;1.60;1.50;;;31.00;79.30;;;;;;5000168;28;20038;-78
2022/08/24 12:23:37;;;;;;;1.50;1.40;;;31.10;80.00;;;;;;4988677;28;20042;-78
2022/08/24 12:26:28;;;;;;;1.50;1.40;;;31.10;79.40;;;;;;5036401;28;20042;-78
2022/08/24 12:29:20;;;;;;;1.60;1.50;;;31.10;76.20;;;;;;4997053;28;20037;-78
2022/08/24 12:32:17;;;;;;;2.33;1.80;;;31.00;78.30;;;;;;4970689;28;20046;-78
2022/08/24 12:35:09;;;;;;;1.95;1.85;;;30.80;75.80;;;;;;4960085;28;20053;-78
2022/08/24 12:37:42;;;;;;;2.13;1.70;;;30.60;78.20;;;;;;5016720;28;20060;-78
2022/08/24 12:40:31;;;;;;;1.80;1.70;;;30.60;78.90;;;;;;4974270;28;20049;-78
2022/08/24 12:43:05;;;;;;;13.32;1.83;;;30.60;78.10;;;;;;4972571;28;20054;-78
2022/08/24 12:45:31;;;;;;;1.60;1.50;;;30.70;75.70;;;;;;4980597;28;20076;-78
2022/08/24 12:48:10;;;;;;;1.85;1.70;;;30.70;76.60;;;;;;4991540;28;20436;-78
2022/08/24 12:50:41;;;;;;;2.58;1.80;;;30.70;76.50;;;;;;4984326;28;20046;-78
2022/08/24 12:53:44;;;;;;;3.25;1.50;;;30.70;76.30;;;;;;4983386;28;20039;-78
2022/08/24 12:56:24;;;;;;;3.33;1.45;;;30.70;74.10;;;;;;4985940;28;20042;-78
2022/08/24 12:58:53;;;;;;;3.20;1.50;;;30.70;75.00;;;;;;4984640;28;20604;-78
2022/08/24 13:01:22;;;;;;;2.38;1.50;;;30.70;75.30;;;;;;4999633;28;20499;-78
2022/08/24 13:04:04;;;;;;;1.50;1.40;;;30.60;74.10;;;;;;5000882;28;20512;-78
2022/08/24 13:06:49;;;;;;;3.70;1.67;;;30.60;74.40;;;;;;4984458;28;20045;-78
2022/08/24 13:09:34;;;;;;;1.73;1.42;;;30.80;76.40;;;;;;5028053;22;20054;-80
2022/08/24 13:12:42;;;;;;;2.40;1.60;;;30.80;76.10;;;;;;5053910;28;20038;-80